Time;durP1;ratioP1;P1;durP2;ratioP2;P2;SDS_P1;SDS_P2;PMS_P1;PMS_P2;Temp;Humidity;BMP_temperature;BMP_pressure;BME280_temperature;BME280_humidity;BME280_pressure;Samples;Min_cycle;Max_cycle;Signal;HPM_P1;HPM_P2
2023/08/03 20:24:28;;;;;;;4.53;0.93;;;;;;;14.17;100.00;93383.88;5045712;27;20404;-62
2023/08/03 20:26:54;;;;;;;2.22;1.02;;;;;;;14.18;100.00;93387.41;5008397;27;20045;-65
2023/08/03 20:29:29;;;;;;;2.42;1.30;;;;;;;14.23;100.00;93386.81;5006458;28;20134;-62
2023/08/03 20:32:10;;;;;;;2.47;1.02;;;;;;;14.22;100.00;93377.00;5011930;28;20449;-63
2023/08/03 20:34:38;;;;;;;4.10;1.52;;;;;;;14.06;100.00;93386.25;5010527;28;20053;-63
2023/08/03 20:37:16;;;;;;;4.13;1.20;;;;;;;14.12;100.00;93378.16;5012818;28;20049;-69
2023/08/03 20:39:45;;;;;;;3.53;1.10;;;;;;;14.06;100.00;93379.97;5021259;28;20050;-66
2023/08/03 20:42:26;;;;;;;4.38;1.45;;;;;;;14.11;100.00;93377.41;5011596;28;20072;-62
2023/08/03 20:44:56;;;;;;;2.72;1.00;;;;;;;14.07;100.00;93374.00;5016384;28;20613;-65
2023/08/03 20:47:26;;;;;;;2.42;1.00;;;;;;;13.92;100.00;93382.06;5028217;28;20046;-64
2023/08/03 20:49:56;;;;;;;3.80;1.37;;;;;;;13.98;100.00;93385.78;5025065;28;21471;-65
2023/08/03 20:52:23;;;;;;;3.25;1.10;;;;;;;13.91;100.00;93399.81;5010637;28;20049;-63
2023/08/03 20:54:50;;;;;;;2.45;1.20;;;;;;;13.86;100.00;93389.34;5006935;28;20538;-62
2023/08/03 20:57:18;;;;;;;2.03;1.10;;;;;;;13.86;100.00;93389.34;4995933;28;20407;-64
2023/08/03 20:59:45;;;;;;;2.95;1.33;;;;;;;13.85;100.00;93395.31;4994153;28;20379;-68
2023/08/03 21:02:12;;;;;;;2.70;1.30;;;;;;;13.73;100.00;93389.41;5009452;28;20095;-63
2023/08/03 21:04:39;;;;;;;3.03;1.20;;;;;;;13.68;100.00;93390.00;4992650;28;20068;-62
2023/08/03 21:07:06;;;;;;;4.05;1.30;;;;;;;13.69;100.00;93383.25;5008255;28;20046;-68
2023/08/03 21:09:32;;;;;;;3.75;1.27;;;;;;;13.63;100.00;93379.53;4989642;28;20042;-64
2023/08/03 21:11:59;;;;;;;2.40;1.00;;;;;;;13.62;100.00;93389.03;5014027;28;20095;-67
2023/08/03 21:14:26;;;;;;;2.97;1.20;;;;;;;13.44;100.00;93400.69;4999849;28;20069;-62
2023/08/03 21:16:53;;;;;;;2.20;1.00;;;;;;;13.45;100.00;93407.72;4994922;28;20123;-65
2023/08/03 21:19:22;;;;;;;2.58;1.10;;;;;;;13.52;100.00;93401.19;4995073;28;20076;-62
2023/08/03 21:21:48;;;;;;;3.08;1.27;;;;;;;13.51;100.00;93403.19;5002359;28;20052;-66
2023/08/03 21:24:16;;;;;;;4.25;1.20;;;;;;;13.46;100.00;93401.00;4997293;28;20062;-62
2023/08/03 21:26:44;;;;;;;2.40;1.20;;;;;;;13.47;100.00;93390.75;4996458;28;20036;-64
2023/08/03 21:29:11;;;;;;;2.50;1.02;;;;;;;13.45;100.00;93396.72;4992393;28;20123;-64
2023/08/03 21:31:38;;;;;;;3.00;1.50;;;;;;;13.43;100.00;93388.13;4991175;28;20722;-65
2023/08/03 21:34:05;;;;;;;3.42;1.50;;;;;;;13.30;100.00;93390.13;4991578;28;20054;-63
2023/08/03 21:36:32;;;;;;;3.78;1.40;;;;;;;13.23;100.00;93402.16;4979183;28;20061;-62
2023/08/03 21:38:59;;;;;;;2.77;1.20;;;;;;;13.26;100.00;93397.72;4983487;28;20411;-64
2023/08/03 21:41:25;;;;;;;2.75;1.10;;;;;;;13.24;100.00;93403.69;4983793;28;20039;-62
2023/08/03 21:43:52;;;;;;;2.92;1.10;;;;;;;13.18;100.00;93394.47;4989565;28;20046;-65
2023/08/03 21:46:19;;;;;;;4.28;1.20;;;;;;;13.09;100.00;93392.38;4992116;28;20050;-62
2023/08/03 21:48:46;;;;;;;3.25;1.50;;;;;;;13.05;100.00;93397.22;4990775;28;20442;-61
2023/08/03 21:51:14;;;;;;;3.43;1.37;;;;;;;13.05;100.00;93390.97;4990964;28;20054;-62
2023/08/03 21:53:41;;;;;;;2.40;1.20;;;;;;;13.09;100.00;93397.88;4990420;28;20077;-62
2023/08/03 21:56:15;;;;;;;2.72;1.25;;;;;;;13.06;100.00;93398.00;4990562;28;20239;-64
2023/08/03 21:58:43;;;;;;;2.55;1.27;;;;;;;13.08;100.00;93401.06;4990938;28;20050;-66
2023/08/03 22:01:10;;;;;;;4.15;1.10;;;;;;;13.04;100.00;93403.97;4990821;28;20042;-62
2023/08/03 22:03:37;;;;;;;3.83;1.17;;;;;;;13.05;100.00;93404.72;4990467;28;20057;-62
2023/08/03 22:06:04;;;;;;;2.20;1.08;;;;;;;13.07;100.00;93405.06;4990711;28;20046;-65
2023/08/03 22:08:30;;;;;;;3.20;1.00;;;;;;;13.04;100.00;93405.94;4990529;28;20086;-63
2023/08/03 22:10:57;;;;;;;3.10;1.15;;;;;;;13.07;100.00;93411.34;4990897;28;20113;-68
2023/08/03 22:13:24;;;;;;;4.28;1.10;;;;;;;13.03;100.00;93407.91;4995838;28;20404;-63
2023/08/03 22:15:52;;;;;;;3.43;1.00;;;;;;;13.07;100.00;93402.31;5007189;28;20056;-62
2023/08/03 22:18:19;;;;;;;2.95;1.15;;;;;;;13.06;100.00;93398.00;5010048;28;20057;-61
2023/08/03 22:20:46;;;;;;;2.95;1.50;;;;;;;13.05;100.00;93402.75;5009886;28;20418;-62
2023/08/03 22:23:13;;;;;;;2.67;1.02;;;;;;;12.99;100.00;93405.28;5009491;28;20096;-64
2023/08/03 22:25:39;;;;;;;3.50;1.30;;;;;;;12.92;100.00;93408.28;4992604;28;20441;-62
2023/08/03 22:28:06;;;;;;;2.97;1.20;;;;;;;12.77;100.00;93410.72;4989147;28;20053;-65
2023/08/03 22:30:38;;;;;;;2.30;1.10;;;;;;;12.86;100.00;93409.25;4990346;28;20393;-61
2023/08/03 22:33:05;;;;;;;4.97;1.30;;;;;;;12.76;100.00;93409.19;4990303;28;20597;-63
2023/08/03 22:35:31;;;;;;;2.90;1.20;;;;;;;12.74;100.00;93408.84;4989004;28;20050;-62
2023/08/03 22:37:59;;;;;;;3.30;1.30;;;;;;;12.62;100.00;93417.13;4990346;28;20104;-64
2023/08/03 22:40:26;;;;;;;3.00;1.20;;;;;;;12.59;100.00;93418.75;4989090;28;20042;-62
2023/08/03 22:42:53;;;;;;;2.75;1.45;;;;;;;12.59;100.00;93418.75;4989775;28;20042;-62
2023/08/03 22:45:19;;;;;;;3.63;1.33;;;;;;;12.56;100.00;93420.41;4989850;28;20422;-65
2023/08/03 22:47:46;;;;;;;3.88;2.13;;;;;;;12.48;100.00;93421.84;4989371;28;20426;-62
2023/08/03 22:50:37;;;;;;;3.78;1.52;;;;;;;12.44;100.00;93420.44;4989887;28;20053;-65
2023/08/03 22:53:04;;;;;;;4.93;1.70;;;;;;;12.43;100.00;93416.88;4989943;28;20046;-65
2023/08/03 22:55:31;;;;;;;2.53;1.20;;;;;;;12.42;100.00;93409.84;4989856;28;20052;-62
2023/08/03 22:57:59;;;;;;;3.55;1.50;;;;;;;12.37;100.00;93415.88;4990159;28;20038;-63
2023/08/03 23:00:26;;;;;;;2.97;1.30;;;;;;;12.26;100.00;93420.97;4990253;28;20054;-66
2023/08/03 23:02:53;;;;;;;3.72;1.40;;;;;;;12.06;100.00;93432.91;4989552;28;20047;-61
2023/08/03 23:05:20;;;;;;;3.40;1.53;;;;;;;12.00;100.00;93440.16;4989674;28;20050;-62
2023/08/03 23:07:46;;;;;;;3.15;1.50;;;;;;;11.99;100.00;93439.41;4989495;28;20141;-63
2023/08/03 23:10:13;;;;;;;3.13;1.42;;;;;;;11.94;100.00;93452.91;4989619;28;20107;-62
2023/08/03 23:12:40;;;;;;;3.75;1.60;;;;;;;11.94;100.00;93452.91;4988354;28;20488;-65
2023/08/03 23:15:07;;;;;;;3.60;1.50;;;;;;;11.97;100.00;93457.50;4989646;28;20050;-65
2023/08/03 23:17:34;;;;;;;3.10;1.53;;;;;;;12.02;100.00;93467.22;4987846;28;20045;-63
2023/08/03 23:20:03;;;;;;;4.65;1.38;;;;;;;12.00;100.00;93464.91;4989403;28;20050;-69
2023/08/03 23:22:30;;;;;;;2.85;1.42;;;;;;;12.01;100.00;93468.41;4988837;28;20074;-60
2023/08/03 23:24:58;;;;;;;3.22;1.83;;;;;;;12.05;100.00;93469.84;4989475;28;20042;-62
2023/08/03 23:27:25;;;;;;;3.17;1.40;;;;;;;12.03;100.00;93466.78;4989219;28;20076;-63
2023/08/03 23:29:52;;;;;;;4.57;1.50;;;;;;;11.99;100.00;93466.09;4988925;28;20068;-62
2023/08/03 23:32:18;;;;;;;8.63;4.70;;;;;;;12.00;100.00;93459.41;4988966;28;20056;-65
2023/08/03 23:34:45;;;;;;;3.10;1.83;;;;;;;11.72;100.00;93463.69;4987478;28;20415;-63
2023/08/03 23:37:12;;;;;;;2.95;1.40;;;;;;;11.78;100.00;93450.94;4989204;28;20038;-62
2023/08/03 23:39:39;;;;;;;4.20;1.60;;;;;;;11.76;100.00;93467.09;4988847;28;20057;-61
2023/08/03 23:42:06;;;;;;;3.70;1.50;;;;;;;11.72;100.00;93463.69;4989252;28;20068;-64
2023/08/03 23:44:32;;;;;;;4.03;1.38;;;;;;;11.77;100.00;93466.69;4988450;28;20060;-62
2023/08/03 23:46:59;;;;;;;4.63;1.65;;;;;;;11.76;100.00;93467.88;4989110;28;20042;-65
2023/08/03 23:49:26;;;;;;;3.33;1.58;;;;;;;11.66;100.00;93468.16;4988834;28;20042;-62
2023/08/03 23:51:52;;;;;;;4.72;1.67;;;;;;;11.68;100.00;93472.03;4988726;28;20118;-61
2023/08/03 23:54:19;;;;;;;3.77;1.60;;;;;;;11.72;100.00;93466.44;5002306;28;20057;-62
2023/08/03 23:56:46;;;;;;;5.20;1.60;;;;;;;11.66;100.00;93470.91;5007882;28;20096;-67
2023/08/03 23:59:12;;;;;;;28.90;14.13;;;;;;;11.72;100.00;93463.69;5008104;28;20137;-63
